LEAM Información de aeropuertos

Información de pistas
Pista 08 Longitud 10499 ft Ancho 148 ft
Elevación 26 ft Umbral 492 ft Rumbo 73
Pista 26 Longitud 10499 ft Ancho 148 ft
Elevación 70 ft Umbral 0 ft Rumbo 253
Frecuencias
Tipo APP Nombre APP Frequencia 118.35 MHZ
Tipo GND Nombre GND Frequencia 121.7 MHZ
Tipo TWR Nombre TWR Frequencia 118.35 MHZ
Radioayudas
Tipo NDB Nombre Almeria Frequencia 284 KHZ
Tipo NDB Nombre Almeria Frequencia 310 KHZ
Tipo VOR-DME Nombre Almeria Frequencia 114100 KHZ
Información meteorológica y NOTAM
ADDS - METARS form results

(0018 UTC 07 May 2021)
Data provider http://aviationweather.gov/metar/data/
 
METAR text: LEAM 070000Z AUTO VRB02KT 5000 BR NCD 16/15 Q1018
Conditions at: LEAM (ALMERIA AIRPORT , ES) observed 0000 UTC 07 May 2021
Temperature: 16.0°C (61°F)
Dewpoint: 15.0°C (59°F) [RH = 94%]
Pressure (altimeter): 30.06 inches Hg (1018.0 mb)
Winds: variable direction winds at 2 MPH (2 knots; 1.0 m/s)
Visibility: 3 miles ( 5 km)
Ceiling: at least 12,000 feet AGL
Clouds: sky clear below 12,000 feet AGL
Weather: BR  (mist)

METAR text: LEAM 062330Z AUTO 28003KT 240V330 5000 BR NCD 17/16 Q1018
Conditions at: LEAM (ALMERIA AIRPORT , ES) observed 2330 UTC 06 May 2021
Temperature: 17.0°C (63°F)
Dewpoint: 16.0°C (61°F) [RH = 94%]
Pressure (altimeter): 30.06 inches Hg (1018.0 mb)
Winds: from the W (280 degrees) at 3 MPH (3 knots; 1.5 m/s)
Visibility: 3 miles ( 5 km)
Ceiling: at least 12,000 feet AGL
Clouds: sky clear below 12,000 feet AGL
Weather: BR  (mist)

Forecast for: LEAM (ALMERIA AIRPORT , ES)
Text: TAF LEAM 062300Z 0700/0724 25005KT CAVOK TX19/0713Z TN14/0705Z
Forecast period: 0000 UTC 07 May 2021 to 0000 UTC 08 May 2021
Forecast type: FROM: standard forecast or significant change
Winds: from the WSW (250 degrees) at 6 MPH (5 knots; 2.6 m/s)
Visibility: 6 or more miles (10+ km)
Ceiling: unknown
Clouds: missing
Weather: no significant weather forecast for this period
Text: PROB40
Forecast period: 0000 to 0800 UTC 07 May 2021
Forecast type: TEMPORARY: The following changes expected for less than half the time period
Visibility: 1.86 miles (2.99 km)
Ceiling: 1000 feet AGL
Clouds: broken clouds at 1000 feet AGL
Weather: BR  (mist)